Noblestown, Pennsylvania
Current Conditions -  °F | °C
As of 6:51 AM on Friday 21 Nov 2014 (Local Time) from KPIT Reporting Station
Few Clouds Few Clouds  
Wind Chill:   Ceiling: Unl
Heat Index: 17°   Visibility: 7mi
Dew Point: 13°   Wind: 6mph
Humidity: 84%   Direction: 250°WSW
Pressure: 30.32"   Gusts: NA
Location:  40.4182°N, 80.2079°W
Report Text: KPIT 211151Z 25005KT 7SM FEW250 M08/M11 A3032 RMK AO2 SLP294 60000 T10831106 11061 21089 53033
Loading
Personal Weather Stations






























Interactive Weather Map New forecast layout! Learn more

10-Day Weather Forecast

Advertisements
Track Severe Weather on mobile